createdAt,value
2019-04-28T00:02:27.558Z,78.90
2019-04-28T00:04:56.869Z,78.90
2019-04-28T00:07:26.143Z,78.80
2019-04-28T00:09:55.467Z,79.20
2019-04-28T00:12:25.231Z,78.40
2019-04-28T00:14:54.800Z,78.40
2019-04-28T00:17:24.346Z,78.80
2019-04-28T00:19:55.263Z,78.30
2019-04-28T00:22:51.500Z,78.40
2019-04-28T00:25:24.499Z,78.50
2019-04-28T00:27:53.899Z,78.70
2019-04-28T00:30:23.182Z,78.80
2019-04-28T00:32:52.457Z,78.60
2019-04-28T00:35:23.227Z,78.90
2019-04-28T00:37:52.640Z,79.10
2019-04-28T00:40:21.923Z,79.10
2019-04-28T00:42:51.620Z,79.00
2019-04-28T00:45:21.509Z,79.20
2019-04-28T00:47:51.081Z,79.20
2019-04-28T00:50:21.790Z,78.90
2019-04-28T00:52:51.827Z,79.30
2019-04-28T00:55:21.243Z,79.60
2019-04-28T00:57:50.979Z,79.20
2019-04-28T01:00:23.160Z,79.40
2019-04-28T01:02:53.221Z,79.90
2019-04-28T01:05:22.479Z,79.60
2019-04-28T01:07:58.519Z,79.70
2019-04-28T01:10:30.799Z,79.80
2019-04-28T01:13:01.966Z,80.50
2019-04-28T01:15:49.543Z,80.40
2019-04-28T01:18:25.205Z,80.80
2019-04-28T01:20:54.523Z,80.90
2019-04-28T01:23:24.095Z,80.90
2019-04-28T01:26:00.042Z,81.20
2019-04-28T01:28:29.747Z,81.10
2019-04-28T01:31:22.514Z,81.10
2019-04-28T01:34:11.160Z,81.60
2019-04-28T01:36:51.590Z,81.50
2019-04-28T01:39:21.018Z,81.00
2019-04-28T01:41:50.294Z,80.50
2019-04-28T01:44:19.941Z,80.60
2019-04-28T01:46:49.719Z,80.90
2019-04-28T01:49:19.708Z,80.80
2019-04-28T01:52:14.545Z,80.60
2019-04-28T01:54:43.814Z,80.70
2019-04-28T01:57:13.370Z,80.10
2019-04-28T01:59:42.672Z,80.20
2019-04-28T02:02:11.936Z,80.40
2019-04-28T02:04:41.474Z,79.80
2019-04-28T02:07:11.167Z,79.80
2019-04-28T02:09:40.785Z,79.50
2019-04-28T02:12:10.693Z,78.90
2019-04-28T02:14:40.485Z,78.40
2019-04-28T02:17:10.466Z,78.20
2019-04-28T02:19:40.996Z,78.30
2019-04-28T02:22:31.802Z,78.20
2019-04-28T02:25:01.270Z,78.20
2019-04-28T02:27:30.641Z,77.90
2019-04-28T02:30:00.338Z,78.50
2019-04-28T02:32:30.986Z,79.20
2019-04-28T02:35:01.643Z,78.20
2019-04-28T02:37:31.145Z,78.20
2019-04-28T02:40:03.437Z,78.10
2019-04-28T02:42:31.773Z,78.70
2019-04-28T02:45:01.807Z,77.50
2019-04-28T02:47:33.981Z,76.50
2019-04-28T02:50:21.376Z,76.60
2019-04-28T02:53:22.208Z,76.50
2019-04-28T02:55:51.608Z,76.80
2019-04-28T02:58:22.392Z,77.00
2019-04-28T03:01:04.927Z,77.00
2019-04-28T03:03:23.282Z,76.40
2019-04-28T03:05:52.728Z,76.50
2019-04-28T03:08:22.356Z,76.80
2019-04-28T03:10:51.698Z,77.30
2019-04-28T03:13:21.143Z,77.10
2019-04-28T03:15:51.513Z,77.30
2019-04-28T03:18:21.619Z,77.50
2019-04-28T03:20:51.679Z,78.00
2019-04-28T03:23:21.509Z,77.60
2019-04-28T03:26:10.978Z,77.80
2019-04-28T03:28:47.125Z,78.10
2019-04-28T03:32:01.195Z,77.60
2019-04-28T03:34:05.125Z,77.90
2019-04-28T03:36:34.696Z,77.90
2019-04-28T03:39:06.621Z,78.00
2019-04-28T03:41:36.575Z,77.80
2019-04-28T03:44:06.286Z,77.90
2019-04-28T03:46:41.381Z,77.50
2019-04-28T03:49:12.783Z,76.80
2019-04-28T03:51:42.424Z,77.20
2019-04-28T03:54:12.351Z,77.10
2019-04-28T03:56:41.817Z,76.80
2019-04-28T03:59:11.268Z,76.90
2019-04-28T04:01:55.446Z,77.30
2019-04-28T04:04:12.088Z,77.10
2019-04-28T04:06:41.421Z,77.30
2019-04-28T04:09:11.334Z,77.10
2019-04-28T04:11:50.870Z,77.10
2019-04-28T04:14:47.742Z,77.30
2019-04-28T04:17:25.126Z,77.10
2019-04-28T04:19:54.671Z,77.50
2019-04-28T04:22:24.084Z,77.80
2019-04-28T04:24:53.390Z,77.00
2019-04-28T04:27:23.036Z,77.00
2019-04-28T04:29:52.700Z,76.40
2019-04-28T04:32:26.653Z,77.00
2019-04-28T04:34:53.271Z,77.10
2019-04-28T04:37:22.551Z,77.00
2019-04-28T04:39:51.840Z,76.90
2019-04-28T04:42:21.467Z,76.10
2019-04-28T04:44:50.765Z,76.40
2019-04-28T04:47:21.103Z,76.20
2019-04-28T04:49:50.626Z,75.90
2019-04-28T04:52:20.385Z,76.10
2019-04-28T04:54:51.159Z,75.80
2019-04-28T04:57:20.791Z,75.10
2019-04-28T04:59:50.217Z,75.50
2019-04-28T05:02:33.914Z,76.00
2019-04-28T05:05:16.816Z,76.00
2019-04-28T05:07:46.368Z,76.20
2019-04-28T05:10:16.717Z,75.70
2019-04-28T05:12:45.985Z,75.80
2019-04-28T05:15:15.510Z,75.90
2019-04-28T05:17:45.059Z,76.20
2019-04-28T05:20:14.327Z,76.60
2019-04-28T05:22:50.561Z,76.30
2019-04-28T05:25:31.002Z,76.10
2019-04-28T05:28:01.131Z,76.00
2019-04-28T05:30:29.280Z,75.90
2019-04-28T05:33:00.359Z,75.80
2019-04-28T05:35:29.688Z,75.90
2019-04-28T05:37:59.760Z,76.30
2019-04-28T05:40:29.644Z,75.60
2019-04-28T05:43:00.891Z,75.60
2019-04-28T05:45:32.185Z,75.50
2019-04-28T05:48:01.891Z,75.70
2019-04-28T05:50:40.128Z,75.50
2019-04-28T05:53:24.491Z,76.00
2019-04-28T05:56:10.341Z,76.60
2019-04-28T05:59:02.210Z,77.30
2019-04-28T06:01:36.055Z,77.20
2019-04-28T06:04:05.416Z,77.80
2019-04-28T06:06:38.011Z,78.40
2019-04-28T06:09:24.875Z,78.00
2019-04-28T06:11:54.654Z,78.90
2019-04-28T06:14:24.092Z,78.80
2019-04-28T06:16:54.023Z,79.20
2019-04-28T06:19:23.944Z,77.90
2019-04-28T06:21:53.521Z,78.20
2019-04-28T06:24:22.871Z,78.20
2019-04-28T06:26:52.183Z,77.90
2019-04-28T06:29:21.510Z,78.10
2019-04-28T06:31:50.775Z,77.00
2019-04-28T06:34:20.099Z,77.20
2019-04-28T06:36:49.724Z,78.30
2019-04-28T06:39:19.327Z,78.90
2019-04-28T06:41:48.590Z,79.10
2019-04-28T06:44:17.905Z,78.40
2019-04-28T06:46:47.269Z,79.30
2019-04-28T06:49:16.676Z,78.20
2019-04-28T06:51:46.249Z,78.30
2019-04-28T06:54:15.524Z,78.00
2019-04-28T06:56:44.792Z,77.30
2019-04-28T06:59:14.080Z,77.50
2019-04-28T07:01:43.671Z,76.60
2019-04-28T07:04:13.198Z,75.70
2019-04-28T07:06:42.524Z,75.50
2019-04-28T07:09:13.811Z,73.30
2019-04-28T07:11:43.418Z,72.00
2019-04-28T07:14:12.963Z,72.10
2019-04-28T07:16:42.625Z,69.90
2019-04-28T07:19:12.229Z,67.40
2019-04-28T07:22:06.452Z,66.90
2019-04-28T07:24:36.044Z,67.60
2019-04-28T07:27:06.762Z,64.80
2019-04-28T07:29:36.385Z,65.30
2019-04-28T07:32:05.656Z,65.50
2019-04-28T07:34:35.212Z,64.80
2019-04-28T07:37:04.792Z,64.20
2019-04-28T07:39:34.090Z,63.50
2019-04-28T07:42:03.703Z,62.00
2019-04-28T07:44:33.427Z,63.60
2019-04-28T07:47:02.967Z,62.00
2019-04-28T07:49:32.236Z,61.80
2019-04-28T07:52:10.777Z,61.90
2019-04-28T07:54:40.231Z,61.20
2019-04-28T07:57:09.584Z,61.20
2019-04-28T07:59:39.115Z,61.50
2019-04-28T08:02:08.771Z,61.10
2019-04-28T08:04:38.097Z,61.50
2019-04-28T08:07:08.700Z,59.50
2019-04-28T08:09:38.272Z,59.60
2019-04-28T08:12:07.745Z,58.30
2019-04-28T08:14:37.124Z,57.90
2019-04-28T08:17:06.679Z,57.80
2019-04-28T08:19:36.218Z,57.10
2019-04-28T08:22:05.485Z,57.20
2019-04-28T08:24:35.347Z,57.20
2019-04-28T08:27:04.816Z,58.80
2019-04-28T08:29:34.335Z,57.30
2019-04-28T08:32:28.391Z,57.20
2019-04-28T08:34:57.936Z,56.20
2019-04-28T08:37:27.205Z,58.50
2019-04-28T08:39:56.942Z,57.20
2019-04-28T08:42:26.224Z,59.20
2019-04-28T08:44:55.517Z,59.00
2019-04-28T08:47:24.880Z,59.90
2019-04-28T08:49:54.498Z,59.80
2019-04-28T08:52:24.196Z,60.10
2019-04-28T08:54:53.807Z,61.20
2019-04-28T08:57:23.409Z,61.20
2019-04-28T08:59:52.962Z,59.60
2019-04-28T09:02:22.231Z,58.30
2019-04-28T09:04:51.864Z,57.50
2019-04-28T09:07:21.761Z,56.70
2019-04-28T09:09:51.103Z,56.40
2019-04-28T09:12:23.040Z,56.50
2019-04-28T09:14:55.415Z,57.10
2019-04-28T09:17:27.841Z,57.30
2019-04-28T09:19:57.104Z,56.40
2019-04-28T09:22:26.756Z,56.00
2019-04-28T09:24:56.091Z,56.00
2019-04-28T09:27:27.411Z,56.30
2019-04-28T09:29:56.748Z,56.40
2019-04-28T09:32:26.351Z,56.40
2019-04-28T09:34:55.641Z,55.20
2019-04-28T09:37:25.183Z,54.80
2019-04-28T09:39:59.672Z,53.70
2019-04-28T09:42:46.419Z,53.50
2019-04-28T09:45:19.267Z,52.50
2019-04-28T09:47:48.884Z,54.50
2019-04-28T09:50:18.437Z,53.20
2019-04-28T09:52:48.836Z,51.40
2019-04-28T09:55:18.641Z,51.30
2019-04-28T09:57:48.021Z,51.60
2019-04-28T10:00:18.948Z,51.80
2019-04-28T10:02:48.317Z,50.50
2019-04-28T10:05:17.668Z,51.70
2019-04-28T10:07:46.956Z,52.70
2019-04-28T10:10:16.750Z,54.10
2019-04-28T10:12:46.672Z,53.40
2019-04-28T10:15:16.232Z,54.20
2019-04-28T10:17:45.584Z,52.50
2019-04-28T10:20:15.423Z,51.90
2019-04-28T10:22:44.776Z,50.80
2019-04-28T10:25:14.378Z,49.20
2019-04-28T10:27:43.655Z,49.60
2019-04-28T10:30:13.944Z,48.90
2019-04-28T10:32:43.276Z,47.60
2019-04-28T10:35:13.029Z,48.80
2019-04-28T10:37:42.311Z,48.00
2019-04-28T10:40:20.295Z,47.40
2019-04-28T10:42:49.717Z,46.10
2019-04-28T10:45:21.905Z,46.10
2019-04-28T10:47:51.447Z,47.30
2019-04-28T10:50:20.788Z,46.60
2019-04-28T10:52:50.340Z,47.30
2019-04-28T10:55:19.612Z,49.30
2019-04-28T10:57:49.293Z,50.00
2019-04-28T11:00:20.218Z,50.10
2019-04-28T11:02:49.594Z,49.00
2019-04-28T11:05:25.131Z,48.30
2019-04-28T11:07:55.003Z,48.00
2019-04-28T11:10:24.520Z,46.50
2019-04-28T11:12:54.044Z,45.60
2019-04-28T11:15:28.725Z,45.10
2019-04-28T11:17:58.300Z,46.00
2019-04-28T11:20:27.615Z,46.90
2019-04-28T11:22:57.152Z,47.90
2019-04-28T11:25:26.429Z,47.20
2019-04-28T11:27:55.708Z,48.50
2019-04-28T11:30:25.771Z,49.10
2019-04-28T11:33:29.203Z,49.80
2019-04-28T11:35:58.503Z,50.40
2019-04-28T11:38:28.084Z,52.20
2019-04-28T11:40:57.364Z,53.10
2019-04-28T11:43:26.922Z,53.30
2019-04-28T11:45:56.371Z,52.70
2019-04-28T11:48:25.975Z,53.30
2019-04-28T11:50:55.587Z,54.00
2019-04-28T11:53:24.864Z,52.20
2019-04-28T11:55:54.475Z,52.50
2019-04-28T11:58:23.808Z,51.00
2019-04-28T12:00:53.244Z,50.50
2019-04-28T12:03:22.684Z,50.70
2019-04-28T12:05:52.247Z,48.00
2019-04-28T12:08:21.527Z,47.10
2019-04-28T12:11:08.452Z,46.50
2019-04-28T12:13:55.179Z,46.90
2019-04-28T12:16:49.314Z,47.80
2019-04-28T12:19:29.911Z,49.10
2019-04-28T12:21:59.532Z,49.40
2019-04-28T12:24:29.084Z,51.30
2019-04-28T12:26:58.752Z,51.50
2019-04-28T12:29:28.268Z,51.70
2019-04-28T12:31:57.683Z,53.50
2019-04-28T12:34:27.221Z,54.30
2019-04-28T12:36:56.551Z,55.00
2019-04-28T12:39:26.210Z,55.70
2019-04-28T12:41:55.803Z,55.50
2019-04-28T12:44:25.218Z,56.40
2019-04-28T12:46:54.566Z,58.00
2019-04-28T12:49:39.419Z,58.30
2019-04-28T12:52:09.627Z,58.30
2019-04-28T12:54:40.201Z,59.20
2019-04-28T12:57:09.713Z,61.40
2019-04-28T12:59:53.007Z,60.40
2019-04-28T13:02:38.864Z,61.10
2019-04-28T13:05:12.183Z,57.50
2019-04-28T13:07:41.444Z,57.50
2019-04-28T13:10:11.561Z,55.40
2019-04-28T13:12:41.190Z,55.30
2019-04-28T13:15:10.828Z,54.70
2019-04-28T13:17:40.083Z,54.10
2019-04-28T13:20:10.044Z,50.60
2019-04-28T13:22:39.594Z,49.30
2019-04-28T13:25:08.946Z,49.10
2019-04-28T13:27:38.360Z,48.30
2019-04-28T13:30:08.054Z,48.60
2019-04-28T13:32:37.444Z,49.50
2019-04-28T13:35:07.886Z,47.40
2019-04-28T13:37:37.439Z,48.50
2019-04-28T13:40:15.170Z,49.80
2019-04-28T13:42:44.511Z,49.20
2019-04-28T13:45:17.905Z,51.60
2019-04-28T13:47:47.344Z,51.60
2019-04-28T13:50:25.045Z,52.30
2019-04-28T13:52:54.393Z,52.50
2019-04-28T13:55:41.469Z,53.00
2019-04-28T13:58:10.802Z,53.90
2019-04-28T14:00:57.347Z,55.50
2019-04-28T14:03:41.898Z,56.50
2019-04-28T14:06:13.628Z,57.20
2019-04-28T14:08:42.998Z,56.80
2019-04-28T14:11:12.345Z,57.90
2019-04-28T14:13:41.696Z,56.90
2019-04-28T14:16:11.074Z,57.00
2019-04-28T14:18:41.001Z,57.20
2019-04-28T14:21:10.263Z,57.60
2019-04-28T14:23:39.506Z,57.60
2019-04-28T14:26:08.796Z,56.70
2019-04-28T14:28:38.443Z,56.90
2019-04-28T14:31:08.025Z,57.40
2019-04-28T14:33:37.547Z,57.60
2019-04-28T14:36:06.918Z,58.40
2019-04-28T14:38:36.272Z,59.60
2019-04-28T14:41:05.581Z,59.60
2019-04-28T14:43:35.291Z,59.40
2019-04-28T14:46:04.657Z,59.10
2019-04-28T14:48:34.346Z,59.40
2019-04-28T14:51:03.706Z,59.40
2019-04-28T14:53:33.319Z,59.80
2019-04-28T14:56:02.943Z,60.80
2019-04-28T14:58:32.624Z,60.60
2019-04-28T15:01:09.114Z,61.00
2019-04-28T15:03:40.839Z,61.70
2019-04-28T15:06:19.531Z,60.70
2019-04-28T15:09:14.274Z,61.10
2019-04-28T15:11:47.066Z,62.30
2019-04-28T15:14:16.427Z,63.10
2019-04-28T15:16:45.882Z,63.00
2019-04-28T15:19:15.278Z,62.70
2019-04-28T15:21:44.551Z,60.40
2019-04-28T15:24:13.935Z,60.90
2019-04-28T15:26:43.331Z,60.00
2019-04-28T15:29:12.859Z,59.20
2019-04-28T15:31:42.419Z,59.50
2019-04-28T15:34:12.315Z,59.80
2019-04-28T15:36:41.874Z,59.60
2019-04-28T15:39:13.023Z,58.70
2019-04-28T15:41:42.355Z,58.20
2019-04-28T15:44:11.704Z,58.20
2019-04-28T15:46:41.260Z,58.20
2019-04-28T15:49:11.119Z,58.60
2019-04-28T15:51:40.687Z,60.40
2019-04-28T15:54:09.935Z,61.00
2019-04-28T15:56:45.419Z,61.40
2019-04-28T15:59:15.001Z,60.90
2019-04-28T16:01:44.716Z,59.80
2019-04-28T16:04:14.028Z,59.40
2019-04-28T16:06:43.385Z,58.90
2019-04-28T16:09:14.449Z,58.50
2019-04-28T16:11:44.058Z,57.90
2019-04-28T16:14:13.362Z,58.60
2019-04-28T16:16:42.874Z,59.00
2019-04-28T16:19:12.133Z,59.40
2019-04-28T16:21:41.394Z,59.20
2019-04-28T16:24:10.950Z,58.40
2019-04-28T16:26:40.542Z,57.70
2019-04-28T16:29:09.802Z,57.40
2019-04-28T16:31:39.399Z,57.50
2019-04-28T16:34:08.695Z,57.20
2019-04-28T16:36:38.071Z,56.50
2019-04-28T16:39:07.867Z,57.00
2019-04-28T16:41:37.152Z,56.90
2019-04-28T16:44:10.496Z,55.10
2019-04-28T16:46:40.100Z,54.50
2019-04-28T16:49:09.411Z,53.40
2019-04-28T16:51:39.022Z,53.80
2019-04-28T16:54:08.627Z,53.90
2019-04-28T16:56:59.285Z,53.80
2019-04-28T17:00:02.231Z,54.40
2019-04-28T17:02:44.979Z,54.40
2019-04-28T17:05:15.147Z,54.40
2019-04-28T17:07:52.431Z,55.40
2019-04-28T17:10:15.768Z,55.80
2019-04-28T17:12:45.527Z,56.70
2019-04-28T17:15:14.932Z,57.40
2019-04-28T17:17:44.232Z,57.80
2019-04-28T17:20:14.241Z,58.30
2019-04-28T17:22:43.592Z,58.90
2019-04-28T17:25:13.178Z,58.60
2019-04-28T17:27:42.563Z,58.80
2019-04-28T17:30:12.003Z,58.70
2019-04-28T17:32:41.327Z,59.00
2019-04-28T17:35:10.615Z,59.00
2019-04-28T17:37:39.970Z,59.50
2019-04-28T17:40:09.684Z,59.50
2019-04-28T17:42:38.951Z,59.10
2019-04-28T17:45:08.636Z,59.10
2019-04-28T17:47:37.933Z,59.40
2019-04-28T17:50:08.238Z,59.70
2019-04-28T17:52:37.504Z,60.10
2019-04-28T17:55:06.889Z,60.70
2019-04-28T17:57:36.415Z,61.30
2019-04-28T18:00:13.895Z,62.60
2019-04-28T18:02:48.209Z,63.10
2019-04-28T18:05:26.926Z,63.80
2019-04-28T18:08:00.313Z,64.20
2019-04-28T18:10:29.935Z,63.80
2019-04-28T18:13:00.988Z,63.80
2019-04-28T18:15:38.944Z,64.80
2019-04-28T18:18:14.984Z,65.30
2019-04-28T18:20:44.390Z,66.00
2019-04-28T18:23:13.663Z,66.70
2019-04-28T18:25:42.927Z,67.50
2019-04-28T18:28:12.217Z,67.80
2019-04-28T18:30:46.862Z,68.70
2019-04-28T18:33:50.283Z,69.40
2019-04-28T18:36:26.427Z,69.90
2019-04-28T18:39:01.165Z,70.40
2019-04-28T18:41:48.370Z,71.10
2019-04-28T18:44:20.549Z,71.70
2019-04-28T18:46:50.246Z,71.40
2019-04-28T18:49:20.139Z,71.60
2019-04-28T18:51:49.694Z,72.00
2019-04-28T18:54:19.276Z,72.40
2019-04-28T18:56:48.863Z,72.70
2019-04-28T18:59:18.134Z,72.70
2019-04-28T19:01:59.548Z,73.50
2019-04-28T19:04:28.931Z,73.80
2019-04-28T19:07:05.198Z,73.90
2019-04-28T19:09:45.431Z,74.10
2019-04-28T19:12:22.003Z,74.20
2019-04-28T19:15:25.716Z,74.80
2019-04-28T19:18:03.871Z,76.30
2019-04-28T19:20:33.164Z,76.20
2019-04-28T19:23:02.443Z,76.70
2019-04-28T19:25:35.234Z,77.10
2019-04-28T19:28:03.616Z,77.40
2019-04-28T19:30:33.003Z,78.00
2019-04-28T19:33:02.520Z,78.10
2019-04-28T19:35:31.788Z,78.40
2019-04-28T19:38:01.354Z,79.00
2019-04-28T19:40:31.191Z,79.10
2019-04-28T19:43:00.494Z,79.30
2019-04-28T19:45:31.976Z,79.60
2019-04-28T19:48:01.320Z,80.10
2019-04-28T19:50:30.597Z,80.60
2019-04-28T19:52:59.879Z,80.90
2019-04-28T19:55:36.126Z,81.10
2019-04-28T19:58:24.452Z,81.50
2019-04-28T20:00:57.359Z,82.20
2019-04-28T20:03:26.644Z,82.40
2019-04-28T20:05:56.178Z,82.70
2019-04-28T20:08:25.881Z,83.00
2019-04-28T20:10:55.151Z,83.30
2019-04-28T20:13:24.715Z,83.40
2019-04-28T20:15:53.975Z,83.30
2019-04-28T20:18:23.540Z,83.70
2019-04-28T20:20:53.135Z,84.00
2019-04-28T20:23:22.660Z,84.70
2019-04-28T20:25:52.561Z,84.30
2019-04-28T20:28:21.814Z,83.30
2019-04-28T20:30:51.391Z,83.10
2019-04-28T20:33:20.664Z,83.50
2019-04-28T20:35:54.678Z,83.50
2019-04-28T20:38:33.807Z,83.60
2019-04-28T20:41:19.266Z,84.00
2019-04-28T20:43:48.879Z,84.00
2019-04-28T20:46:18.165Z,84.10
2019-04-28T20:48:47.439Z,84.30
2019-04-28T20:51:16.967Z,84.50
2019-04-28T20:53:47.102Z,84.80
2019-04-28T20:56:16.439Z,84.80
2019-04-28T20:58:45.875Z,85.00
2019-04-28T21:01:15.220Z,85.30
2019-04-28T21:03:44.801Z,85.70
2019-04-28T21:06:14.407Z,85.90
2019-04-28T21:08:43.695Z,85.90
2019-04-28T21:11:13.307Z,86.20
2019-04-28T21:13:42.704Z,86.30
2019-04-28T21:16:11.960Z,86.50
2019-04-28T21:18:41.646Z,86.80
2019-04-28T21:21:11.255Z,87.00
2019-04-28T21:23:40.848Z,87.00
2019-04-28T21:26:11.477Z,87.20
2019-04-28T21:28:41.472Z,87.40
2019-04-28T21:31:10.783Z,87.50
2019-04-28T21:33:40.082Z,87.90
2019-04-28T21:36:09.596Z,87.80
2019-04-28T21:38:39.400Z,88.20
2019-04-28T21:41:08.770Z,88.10
2019-04-28T21:43:59.826Z,88.40
2019-04-28T21:46:34.060Z,88.50
2019-04-28T21:49:09.985Z,88.80
2019-04-28T21:51:39.254Z,89.00
2019-04-28T21:54:08.520Z,89.00
2019-04-28T21:56:38.076Z,89.30
2019-04-28T21:59:07.730Z,89.30
2019-04-28T22:01:37.293Z,89.50
2019-04-28T22:04:06.972Z,89.80
2019-04-28T22:06:36.506Z,90.00
2019-04-28T22:09:07.665Z,89.90
2019-04-28T22:11:37.017Z,89.90
2019-04-28T22:14:06.328Z,90.00
2019-04-28T22:16:36.022Z,90.00
2019-04-28T22:19:05.287Z,90.10
2019-04-28T22:21:34.666Z,90.10
2019-04-28T22:24:22.864Z,90.30
2019-04-28T22:26:53.628Z,90.40
2019-04-28T22:29:23.162Z,90.30
2019-04-28T22:31:52.452Z,90.30
2019-04-28T22:34:21.732Z,90.30
2019-04-28T22:36:51.107Z,90.30
2019-04-28T22:39:20.372Z,90.40
2019-04-28T22:41:49.669Z,90.40
2019-04-28T22:44:19.275Z,90.40
2019-04-28T22:46:48.915Z,90.40
2019-04-28T22:49:18.510Z,90.40
2019-04-28T22:51:48.128Z,90.20
2019-04-28T22:54:23.581Z,90.20
2019-04-28T22:57:07.468Z,90.20
2019-04-28T22:59:40.490Z,90.50
2019-04-28T23:02:14.839Z,90.50
2019-04-28T23:05:06.116Z,90.50
2019-04-28T23:07:35.396Z,90.70
2019-04-28T23:10:05.811Z,90.80
2019-04-28T23:12:35.082Z,90.90
2019-04-28T23:15:06.405Z,90.90
2019-04-28T23:17:35.717Z,91.00
2019-04-28T23:20:08.895Z,91.10
2019-04-28T23:22:47.407Z,91.00
2019-04-28T23:25:17.181Z,91.00
2019-04-28T23:27:46.820Z,90.90
2019-04-28T23:30:35.262Z,90.80
2019-04-28T23:33:04.903Z,90.80
2019-04-28T23:35:34.160Z,90.80
2019-04-28T23:38:03.445Z,90.70
2019-04-28T23:40:32.699Z,90.70
2019-04-28T23:43:08.099Z,90.70
2019-04-28T23:45:37.369Z,90.60
2019-04-28T23:48:07.257Z,90.80
2019-04-28T23:50:46.635Z,90.80
2019-04-28T23:53:17.491Z,90.80
2019-04-28T23:55:46.799Z,90.90
2019-04-28T23:58:16.418Z,90.80
